createdAt,value
2023-04-02T00:00:25.544Z,64.74
2023-04-02T00:01:28.828Z,64.73
2023-04-02T00:02:25.862Z,64.63
2023-04-02T00:03:25.631Z,64.44
2023-04-02T00:04:25.545Z,64.48
2023-04-02T00:05:25.536Z,64.54
2023-04-02T00:06:25.759Z,64.64
2023-04-02T00:07:25.488Z,64.66
2023-04-02T00:08:25.486Z,64.66
2023-04-02T00:09:25.444Z,64.61
2023-04-02T00:10:25.390Z,64.62
2023-04-02T00:11:25.497Z,64.68
2023-04-02T00:12:25.363Z,64.83
2023-04-02T00:13:25.430Z,64.90
2023-04-02T00:14:25.379Z,64.87
2023-04-02T00:15:25.408Z,64.91
2023-04-02T00:16:25.348Z,64.74
2023-04-02T00:17:26.332Z,64.69
2023-04-02T00:18:25.332Z,64.61
2023-04-02T00:19:29.767Z,64.49
2023-04-02T00:20:25.239Z,64.60
2023-04-02T00:21:25.330Z,64.68
2023-04-02T00:22:25.247Z,64.74
2023-04-02T00:23:25.254Z,64.74
2023-04-02T00:24:25.219Z,64.77
2023-04-02T00:25:25.328Z,64.55
2023-04-02T00:26:25.182Z,64.56
2023-04-02T00:27:25.445Z,64.77
2023-04-02T00:28:25.148Z,64.74
2023-04-02T00:29:25.288Z,64.62
2023-04-02T00:30:25.130Z,64.70
2023-04-02T00:31:25.291Z,64.79
2023-04-02T00:32:25.199Z,64.71
2023-04-02T00:33:25.354Z,64.73
2023-04-02T00:34:25.151Z,64.65
2023-04-02T00:35:25.131Z,64.52
2023-04-02T00:36:25.053Z,64.57
2023-04-02T00:37:26.120Z,64.62
2023-04-02T00:38:25.029Z,64.55
2023-04-02T00:39:25.058Z,64.48
2023-04-02T00:40:24.995Z,64.43
2023-04-02T00:41:25.069Z,64.37
2023-04-02T00:42:24.961Z,64.48
2023-04-02T00:43:25.025Z,64.34
2023-04-02T00:44:24.941Z,64.34
2023-04-02T00:45:25.012Z,64.05
2023-04-02T00:46:24.987Z,64.08
2023-04-02T00:47:24.930Z,64.00
2023-04-02T00:48:24.904Z,63.93
2023-04-02T00:49:24.973Z,63.87
2023-04-02T00:50:24.872Z,63.87
2023-04-02T00:51:24.949Z,63.76
2023-04-02T00:52:25.022Z,63.97
2023-04-02T00:53:24.920Z,63.77
2023-04-02T00:54:24.842Z,63.77
2023-04-02T00:55:24.920Z,63.85
2023-04-02T00:56:24.785Z,63.78
2023-04-02T00:57:24.926Z,63.74
2023-04-02T00:58:24.747Z,63.71
2023-04-02T00:59:24.902Z,63.78
2023-04-02T01:00:25.072Z,63.76
2023-04-02T01:01:24.935Z,63.76
2023-04-02T01:02:24.816Z,63.72
2023-04-02T01:03:24.846Z,63.67
2023-04-02T01:04:24.690Z,63.78
2023-04-02T01:05:25.759Z,63.84
2023-04-02T01:06:24.636Z,63.74
2023-04-02T01:07:24.677Z,63.82
2023-04-02T01:08:24.606Z,63.82
2023-04-02T01:09:24.662Z,63.70
2023-04-02T01:10:24.578Z,63.78
2023-04-02T01:11:25.689Z,63.88
2023-04-02T01:12:24.544Z,63.84
2023-04-02T01:13:24.699Z,63.74
2023-04-02T01:14:24.536Z,63.65
2023-04-02T01:15:24.597Z,63.78
2023-04-02T01:16:24.582Z,63.82
2023-04-02T01:17:24.591Z,63.77
2023-04-02T01:18:24.484Z,63.78
2023-04-02T01:19:24.766Z,63.78
2023-04-02T01:20:24.533Z,63.86
2023-04-02T01:21:24.542Z,64.04
2023-04-02T01:22:24.531Z,63.94
2023-04-02T01:23:45.450Z,64.05
2023-04-02T01:24:24.480Z,63.96
2023-04-02T01:25:24.461Z,64.01
2023-04-02T01:26:24.442Z,63.99
2023-04-02T01:27:24.374Z,64.14
2023-04-02T01:28:24.337Z,64.28
2023-04-02T01:29:24.391Z,64.33
2023-04-02T01:30:24.316Z,64.32
2023-04-02T01:31:24.373Z,64.42
2023-04-02T01:32:24.288Z,64.50
2023-04-02T01:33:24.345Z,64.42
2023-04-02T01:34:26.416Z,64.52
2023-04-02T01:35:24.384Z,64.51
2023-04-02T01:36:24.229Z,64.79
2023-04-02T01:37:24.290Z,64.98
2023-04-02T01:38:24.212Z,65.19
2023-04-02T01:39:24.251Z,65.25
2023-04-02T01:40:24.160Z,65.12
2023-04-02T01:41:24.290Z,65.16
2023-04-02T01:42:24.150Z,65.21
2023-04-02T01:43:24.242Z,65.31
2023-04-02T01:44:24.111Z,65.30
2023-04-02T01:45:25.446Z,65.16
2023-04-02T01:46:24.146Z,65.14
2023-04-02T01:47:24.115Z,65.15
2023-04-02T01:48:24.071Z,65.21
2023-04-02T01:49:24.174Z,65.32
2023-04-02T01:50:24.054Z,65.47
2023-04-02T01:51:24.033Z,65.53
2023-04-02T01:52:24.012Z,65.54
2023-04-02T01:53:24.048Z,65.49
2023-04-02T01:54:23.984Z,65.58
2023-04-02T01:55:24.014Z,65.53
2023-04-02T01:56:23.965Z,65.62
2023-04-02T01:57:24.036Z,65.61
2023-04-02T01:58:23.930Z,65.44
2023-04-02T01:59:24.244Z,65.32
2023-04-02T02:00:23.971Z,65.29
2023-04-02T02:01:24.024Z,65.30
2023-04-02T02:02:24.047Z,65.43
2023-04-02T02:03:23.918Z,65.42
2023-04-02T02:04:23.851Z,65.62
2023-04-02T02:05:23.944Z,65.69
2023-04-02T02:06:23.918Z,65.77
2023-04-02T02:07:24.918Z,65.75
2023-04-02T02:08:23.925Z,65.75
2023-04-02T02:09:24.072Z,65.72
2023-04-02T02:10:23.761Z,65.84
2023-04-02T02:11:23.779Z,65.96
2023-04-02T02:12:23.739Z,65.95
2023-04-02T02:13:23.845Z,66.07
2023-04-02T02:14:23.712Z,66.14
2023-04-02T02:15:23.869Z,66.27
2023-04-02T02:16:23.746Z,66.32
2023-04-02T02:17:23.784Z,66.42
2023-04-02T02:18:23.665Z,66.45
2023-04-02T02:19:23.677Z,66.38
2023-04-02T02:20:23.633Z,66.40
2023-04-02T02:21:23.642Z,66.47
2023-04-02T02:22:23.633Z,66.37
2023-04-02T02:23:23.758Z,66.39
2023-04-02T02:24:23.575Z,66.49
2023-04-02T02:25:23.627Z,66.44
2023-04-02T02:26:23.549Z,66.27
2023-04-02T02:27:24.691Z,66.32
2023-04-02T02:28:23.523Z,66.29
2023-04-02T02:29:23.665Z,66.28
2023-04-02T02:30:23.548Z,66.34
2023-04-02T02:31:23.781Z,66.52
2023-04-02T02:32:23.490Z,66.58
2023-04-02T02:33:23.522Z,66.60
2023-04-02T02:34:23.511Z,66.68
2023-04-02T02:35:23.581Z,66.78
2023-04-02T02:36:23.545Z,66.93
2023-04-02T02:37:23.541Z,66.99
2023-04-02T02:38:23.389Z,67.08
2023-04-02T02:39:23.478Z,67.00
2023-04-02T02:40:23.380Z,67.00
2023-04-02T02:41:23.448Z,67.13
2023-04-02T02:42:23.325Z,67.22
2023-04-02T02:43:23.449Z,67.16
2023-04-02T02:44:23.306Z,67.22
2023-04-02T02:45:23.323Z,67.20
2023-04-02T02:46:23.399Z,67.20
2023-04-02T02:47:23.360Z,67.17
2023-04-02T02:48:23.262Z,67.24
2023-04-02T02:49:23.294Z,67.26
2023-04-02T02:50:23.232Z,67.19
2023-04-02T02:51:23.256Z,67.18
2023-04-02T02:52:23.199Z,67.17
2023-04-02T02:53:24.354Z,67.21
2023-04-02T02:54:23.186Z,67.17
2023-04-02T02:55:23.232Z,67.20
2023-04-02T02:56:23.140Z,67.28
2023-04-02T02:57:23.226Z,67.36
2023-04-02T02:58:23.168Z,67.41
2023-04-02T02:59:23.226Z,67.31
2023-04-02T03:00:23.095Z,67.46
2023-04-02T03:01:23.242Z,67.57
2023-04-02T03:02:23.421Z,67.71
2023-04-02T03:03:23.337Z,67.68
2023-04-02T03:04:23.156Z,67.68
2023-04-02T03:05:23.142Z,67.58
2023-04-02T03:06:23.285Z,67.55
2023-04-02T03:07:23.110Z,67.59
2023-04-02T03:08:23.003Z,67.63
2023-04-02T03:09:23.095Z,67.68
2023-04-02T03:10:22.955Z,67.77
2023-04-02T03:11:22.975Z,67.72
2023-04-02T03:12:22.926Z,67.73
2023-04-02T03:13:22.941Z,67.79
2023-04-02T03:14:22.914Z,67.76
2023-04-02T03:15:23.932Z,67.86
2023-04-02T03:16:22.960Z,67.93
2023-04-02T03:17:22.934Z,68.10
2023-04-02T03:18:22.848Z,68.17
2023-04-02T03:19:23.276Z,68.10
2023-04-02T03:20:22.981Z,68.04
2023-04-02T03:21:23.946Z,68.16
2023-04-02T03:22:22.912Z,68.11
2023-04-02T03:23:22.902Z,68.21
2023-04-02T03:24:22.816Z,68.27
2023-04-02T03:25:23.049Z,68.45
2023-04-02T03:26:22.750Z,68.65
2023-04-02T03:27:23.866Z,68.71
2023-04-02T03:28:22.813Z,68.69
2023-04-02T03:29:22.993Z,68.54
2023-04-02T03:30:22.740Z,68.34
2023-04-02T03:31:23.846Z,68.28
2023-04-02T03:32:23.032Z,68.28
2023-04-02T03:33:22.846Z,68.34
2023-04-02T03:34:22.701Z,68.25
2023-04-02T03:35:22.925Z,68.07
2023-04-02T03:36:22.774Z,67.90
2023-04-02T03:37:22.845Z,68.04
2023-04-02T03:38:22.785Z,68.01
2023-04-02T03:39:23.607Z,67.88
2023-04-02T03:40:22.686Z,67.89
2023-04-02T03:41:24.032Z,67.93
2023-04-02T03:42:22.562Z,68.08
2023-04-02T03:43:22.817Z,68.20
2023-04-02T03:44:22.504Z,68.14
2023-04-02T03:45:22.542Z,68.14
2023-04-02T03:46:22.514Z,68.13
2023-04-02T03:47:22.565Z,68.18
2023-04-02T03:48:22.454Z,68.25
2023-04-02T03:49:22.711Z,68.17
2023-04-02T03:50:22.474Z,68.15
2023-04-02T03:51:22.654Z,68.19
2023-04-02T03:52:22.514Z,68.22
2023-04-02T03:53:22.516Z,68.19
2023-04-02T03:54:22.448Z,68.18
2023-04-02T03:55:22.602Z,68.23
2023-04-02T03:56:22.332Z,68.30
2023-04-02T03:57:22.755Z,68.33
2023-04-02T03:58:22.312Z,68.35
2023-04-02T03:59:22.420Z,68.41
2023-04-02T04:00:22.282Z,68.32
2023-04-02T04:01:22.554Z,68.33
2023-04-02T04:02:22.359Z,68.46
2023-04-02T04:03:22.332Z,68.52
2023-04-02T04:04:22.350Z,68.59
2023-04-02T04:05:22.252Z,68.64
2023-04-02T04:06:22.217Z,68.69
2023-04-02T04:07:22.320Z,68.66
2023-04-02T04:08:22.190Z,68.84
2023-04-02T04:09:22.275Z,68.96
2023-04-02T04:10:22.158Z,69.01
2023-04-02T04:11:23.252Z,69.03
2023-04-02T04:12:22.124Z,68.99
2023-04-02T04:13:22.180Z,69.01
2023-04-02T04:14:22.127Z,69.12
2023-04-02T04:15:22.111Z,69.09
2023-04-02T04:16:22.123Z,69.24
2023-04-02T04:17:43.454Z,69.17
2023-04-02T04:18:22.085Z,69.14
2023-04-02T04:19:22.105Z,69.21
2023-04-02T04:20:22.130Z,69.26
2023-04-02T04:21:22.108Z,69.26
2023-04-02T04:22:21.991Z,69.29
2023-04-02T04:23:22.147Z,69.35
2023-04-02T04:24:21.968Z,69.36
2023-04-02T04:25:23.297Z,69.50
2023-04-02T04:26:21.941Z,69.54
2023-04-02T04:27:22.016Z,69.46
2023-04-02T04:28:21.932Z,69.42
2023-04-02T04:29:22.062Z,69.47
2023-04-02T04:30:22.122Z,69.52
2023-04-02T04:31:23.435Z,69.57
2023-04-02T04:32:22.102Z,69.67
2023-04-02T04:33:22.024Z,69.77
2023-04-02T04:34:21.856Z,69.78
2023-04-02T04:35:44.056Z,69.61
2023-04-02T04:36:22.010Z,69.54
2023-04-02T04:37:22.969Z,69.50
2023-04-02T04:38:21.980Z,69.57
2023-04-02T04:39:21.950Z,69.76
2023-04-02T04:40:21.881Z,69.86
2023-04-02T04:41:21.883Z,69.98
2023-04-02T04:42:21.739Z,70.02
2023-04-02T04:43:22.892Z,69.98
2023-04-02T04:44:21.721Z,69.78
2023-04-02T04:45:21.751Z,69.76
2023-04-02T04:46:21.710Z,69.84
2023-04-02T04:47:21.788Z,69.74
2023-04-02T04:48:21.668Z,69.71
2023-04-02T04:49:21.752Z,69.75
2023-04-02T04:50:21.645Z,69.76
2023-04-02T04:51:21.743Z,69.75
2023-04-02T04:52:21.664Z,69.71
2023-04-02T04:53:21.798Z,69.72
2023-04-02T04:54:21.593Z,69.70
2023-04-02T04:55:22.715Z,69.76
2023-04-02T04:56:21.561Z,69.64
2023-04-02T04:57:21.705Z,69.45
2023-04-02T04:58:21.536Z,69.42
2023-04-02T04:59:21.703Z,69.39
2023-04-02T05:00:21.507Z,69.50
2023-04-02T05:01:22.877Z,69.54
2023-04-02T05:02:21.574Z,69.58
2023-04-02T05:03:21.696Z,69.78
2023-04-02T05:04:21.583Z,69.79
2023-04-02T05:05:21.492Z,69.81
2023-04-02T05:06:21.482Z,69.62
2023-04-02T05:07:21.757Z,69.69
2023-04-02T05:08:21.460Z,69.69
2023-04-02T05:09:23.554Z,69.78
2023-04-02T05:10:21.371Z,69.77
2023-04-02T05:11:21.510Z,69.77
2023-04-02T05:12:21.331Z,69.72
2023-04-02T05:13:24.756Z,69.71
2023-04-02T05:14:21.321Z,69.77
2023-04-02T05:15:21.390Z,69.83
2023-04-02T05:16:21.316Z,69.77
2023-04-02T05:17:21.438Z,69.81
2023-04-02T05:18:21.299Z,69.89
2023-04-02T05:19:22.418Z,69.96
2023-04-02T05:20:21.246Z,69.88
2023-04-02T05:21:22.468Z,69.98
2023-04-02T05:22:21.225Z,69.93
2023-04-02T05:23:21.316Z,69.83
2023-04-02T05:24:21.246Z,69.80
2023-04-02T05:25:22.464Z,69.98
2023-04-02T05:26:21.158Z,69.81
2023-04-02T05:27:21.279Z,69.83
2023-04-02T05:28:21.139Z,69.58
2023-04-02T05:29:21.566Z,69.56
2023-04-02T05:30:21.110Z,69.81
2023-04-02T05:31:22.544Z,69.66
2023-04-02T05:32:21.081Z,69.75
2023-04-02T05:33:21.294Z,69.52
2023-04-02T05:34:21.146Z,69.65
2023-04-02T05:35:21.227Z,69.50
2023-04-02T05:36:21.046Z,69.42
2023-04-02T05:37:21.511Z,69.44
2023-04-02T05:38:21.091Z,69.60
2023-04-02T05:39:22.328Z,69.82
2023-04-02T05:40:21.139Z,69.54
2023-04-02T05:41:22.464Z,69.79
2023-04-02T05:42:21.146Z,69.68
2023-04-02T05:43:25.232Z,69.74
2023-04-02T05:44:20.972Z,69.72
2023-04-02T05:45:21.030Z,69.89
2023-04-02T05:46:20.919Z,69.80
2023-04-02T05:47:21.192Z,69.76
2023-04-02T05:48:20.920Z,69.97
2023-04-02T05:49:23.170Z,69.80
2023-04-02T05:50:20.834Z,69.73
2023-04-02T05:51:20.913Z,69.87
2023-04-02T05:52:20.795Z,69.62
2023-04-02T05:53:20.949Z,69.64
2023-04-02T05:54:20.781Z,69.72
2023-04-02T05:55:20.925Z,69.96
2023-04-02T05:56:20.846Z,69.96
2023-04-02T05:57:24.937Z,69.93
2023-04-02T05:58:35.371Z,70.00
2023-04-02T05:59:21.729Z,70.00
2023-04-02T06:00:23.018Z,69.91
2023-04-02T06:01:20.751Z,69.90
2023-04-02T06:02:20.937Z,69.83
2023-04-02T06:03:20.783Z,69.69
2023-04-02T06:04:20.791Z,69.47
2023-04-02T06:05:20.644Z,69.51
2023-04-02T06:06:20.866Z,69.70
2023-04-02T06:07:20.631Z,69.61
2023-04-02T06:08:21.940Z,69.51
2023-04-02T06:09:20.601Z,69.59
2023-04-02T06:10:21.332Z,69.67
2023-04-02T06:11:20.543Z,69.80
2023-04-02T06:12:21.755Z,69.70
2023-04-02T06:13:20.830Z,69.67
2023-04-02T06:14:20.559Z,69.68
2023-04-02T06:15:20.502Z,69.88
2023-04-02T06:16:20.648Z,70.23
2023-04-02T06:17:20.483Z,70.32
2023-04-02T06:18:41.656Z,70.11
2023-04-02T06:19:20.643Z,69.99
2023-04-02T06:20:20.553Z,69.99
2023-04-02T06:21:20.552Z,70.05
2023-04-02T06:22:20.393Z,69.94
2023-04-02T06:23:20.487Z,69.96
2023-04-02T06:24:20.407Z,69.73
2023-04-02T06:25:20.575Z,69.44
2023-04-02T06:26:20.361Z,69.44
2023-04-02T06:27:20.415Z,69.52
2023-04-02T06:28:20.321Z,69.67
2023-04-02T06:29:20.349Z,69.70
2023-04-02T06:30:20.327Z,69.81
2023-04-02T06:31:20.472Z,69.86
2023-04-02T06:32:20.306Z,69.65
2023-04-02T06:33:20.451Z,69.67
2023-04-02T06:34:20.240Z,70.03
2023-04-02T06:35:20.485Z,70.31
2023-04-02T06:36:20.286Z,70.36
2023-04-02T06:37:20.303Z,70.64
2023-04-02T06:38:20.224Z,70.84
2023-04-02T06:39:22.344Z,71.02
2023-04-02T06:40:20.159Z,70.96
2023-04-02T06:41:20.327Z,71.20
2023-04-02T06:42:20.237Z,70.89
2023-04-02T06:43:22.243Z,71.08
2023-04-02T06:44:20.220Z,71.02
2023-04-02T06:45:20.162Z,71.08
2023-04-02T06:46:20.273Z,71.11
2023-04-02T06:47:21.434Z,71.38
2023-04-02T06:48:20.203Z,71.32
2023-04-02T06:49:20.374Z,71.34
2023-04-02T06:50:20.039Z,71.43
2023-04-02T06:51:20.159Z,71.51
2023-04-02T06:52:20.167Z,71.73
2023-04-02T06:53:20.385Z,71.61
2023-04-02T06:54:19.999Z,71.68
2023-04-02T06:55:20.039Z,71.40
2023-04-02T06:56:19.980Z,71.36
2023-04-02T06:57:20.143Z,71.25
2023-04-02T06:58:19.929Z,71.34
2023-04-02T06:59:22.264Z,71.29
2023-04-02T07:00:19.915Z,71.41
2023-04-02T07:01:19.980Z,71.49
2023-04-02T07:02:19.929Z,71.57
2023-04-02T07:03:19.912Z,71.67
2023-04-02T07:04:20.091Z,71.88
2023-04-02T07:05:19.878Z,71.85
2023-04-02T07:06:19.825Z,71.53
2023-04-02T07:07:19.897Z,71.36
2023-04-02T07:08:19.822Z,71.35
2023-04-02T07:09:19.803Z,71.57
2023-04-02T07:10:19.763Z,71.60
2023-04-02T07:11:40.872Z,71.31
2023-04-02T07:12:19.796Z,71.15
2023-04-02T07:13:19.788Z,71.24
2023-04-02T07:14:19.837Z,71.21
2023-04-02T07:15:19.887Z,71.33
2023-04-02T07:16:20.888Z,71.06
2023-04-02T07:17:19.899Z,70.86
2023-04-02T07:18:19.670Z,70.91
2023-04-02T07:19:19.622Z,70.97
2023-04-02T07:20:19.694Z,70.62
2023-04-02T07:21:19.603Z,70.86
2023-04-02T07:22:19.737Z,70.84
2023-04-02T07:23:19.591Z,71.09
2023-04-02T07:24:21.727Z,71.12
2023-04-02T07:25:19.556Z,70.97
2023-04-02T07:26:19.630Z,70.97
2023-04-02T07:27:19.550Z,70.98
2023-04-02T07:28:21.388Z,70.95
2023-04-02T07:29:19.512Z,71.22
2023-04-02T07:30:19.594Z,70.89
2023-04-02T07:31:19.626Z,71.02
2023-04-02T07:32:20.547Z,70.90
2023-04-02T07:33:19.430Z,70.71
2023-04-02T07:34:42.541Z,70.51
2023-04-02T07:35:19.409Z,70.24
2023-04-02T07:36:19.553Z,70.28
2023-04-02T07:37:19.385Z,69.76
2023-04-02T07:38:19.433Z,69.89
2023-04-02T07:39:19.484Z,69.73
2023-04-02T07:40:19.470Z,69.00
2023-04-02T07:41:19.322Z,68.86
2023-04-02T07:42:19.440Z,69.10
2023-04-02T07:43:19.646Z,68.87
2023-04-02T07:44:19.343Z,69.03
2023-04-02T07:45:19.303Z,69.89
2023-04-02T07:46:19.369Z,69.45
2023-04-02T07:47:19.398Z,69.22
2023-04-02T07:48:19.269Z,69.05
2023-04-02T07:49:19.217Z,68.63
2023-04-02T07:50:19.324Z,68.67
2023-04-02T07:51:19.236Z,68.14
2023-04-02T07:52:20.273Z,68.18
2023-04-02T07:53:19.169Z,68.16
2023-04-02T07:54:19.218Z,68.19
2023-04-02T07:55:19.150Z,68.35
2023-04-02T07:56:20.180Z,68.34
2023-04-02T07:57:19.155Z,67.92
2023-04-02T07:58:19.198Z,67.88
2023-04-02T07:59:19.120Z,68.12
2023-04-02T08:00:19.162Z,68.26
2023-04-02T08:01:19.082Z,68.28
2023-04-02T08:02:19.217Z,68.00
2023-04-02T08:03:19.199Z,67.71
2023-04-02T08:04:19.325Z,67.86
2023-04-02T08:05:19.024Z,67.94
2023-04-02T08:06:19.323Z,68.29
2023-04-02T08:07:19.271Z,68.21
2023-04-02T08:08:19.164Z,68.46
2023-04-02T08:09:19.316Z,67.92
2023-04-02T08:10:19.393Z,68.02
2023-04-02T08:11:18.946Z,68.13
2023-04-02T08:12:19.959Z,67.84
2023-04-02T08:13:19.028Z,67.81
2023-04-02T08:14:18.966Z,68.03
2023-04-02T08:15:19.003Z,68.08
2023-04-02T08:16:19.163Z,68.19
2023-04-02T08:17:19.269Z,68.42
2023-04-02T08:18:20.015Z,68.39
2023-04-02T08:19:18.923Z,67.78
2023-04-02T08:20:19.064Z,67.78
2023-04-02T08:21:18.921Z,67.75
2023-04-02T08:22:18.903Z,68.20
2023-04-02T08:23:18.784Z,67.11
2023-04-02T08:24:18.830Z,66.88
2023-04-02T08:25:18.748Z,66.74
2023-04-02T08:26:19.928Z,67.45
2023-04-02T08:27:18.727Z,66.75
2023-04-02T08:28:18.816Z,67.02
2023-04-02T08:29:18.765Z,66.91
2023-04-02T08:30:18.786Z,66.84
2023-04-02T08:31:18.685Z,66.91
2023-04-02T08:32:18.788Z,66.93
2023-04-02T08:33:18.684Z,67.14
2023-04-02T08:34:18.742Z,67.46
2023-04-02T08:35:18.639Z,67.72
2023-04-02T08:36:18.809Z,67.89
2023-04-02T08:37:18.608Z,67.77
2023-04-02T08:38:18.626Z,67.85
2023-04-02T08:39:18.565Z,67.77
2023-04-02T08:40:18.717Z,67.47
2023-04-02T08:41:18.556Z,67.54
2023-04-02T08:42:18.674Z,67.44
2023-04-02T08:43:19.089Z,67.36
2023-04-02T08:44:18.572Z,67.36
2023-04-02T08:45:24.865Z,67.51
2023-04-02T08:46:19.542Z,67.44
2023-04-02T08:47:18.615Z,67.50
2023-04-02T08:48:18.455Z,67.58
2023-04-02T08:49:18.642Z,67.85
2023-04-02T08:50:18.501Z,67.23
2023-04-02T08:51:19.535Z,67.09
2023-04-02T08:52:18.425Z,66.92
2023-04-02T08:53:18.434Z,66.91
2023-04-02T08:54:18.646Z,67.60
2023-04-02T08:55:18.442Z,66.78
2023-04-02T08:56:18.336Z,66.83
2023-04-02T08:57:18.382Z,67.07
2023-04-02T08:58:18.373Z,67.24
2023-04-02T08:59:18.349Z,67.89
2023-04-02T09:00:18.287Z,67.92
2023-04-02T09:01:18.394Z,67.60
2023-04-02T09:02:18.268Z,67.80
2023-04-02T09:03:18.281Z,67.96
2023-04-02T09:04:18.267Z,68.53
2023-04-02T09:05:18.291Z,68.65
2023-04-02T09:06:18.230Z,69.53
2023-04-02T09:07:18.273Z,69.41
2023-04-02T09:08:18.264Z,70.59
2023-04-02T09:09:18.301Z,70.01
2023-04-02T09:10:18.383Z,70.64
2023-04-02T09:11:18.598Z,69.91
2023-04-02T09:12:18.186Z,70.67
2023-04-02T09:13:18.835Z,71.28
2023-04-02T09:14:18.214Z,71.23
2023-04-02T09:15:18.190Z,71.86
2023-04-02T09:16:18.383Z,72.38
2023-04-02T09:17:18.231Z,72.01
2023-04-02T09:18:18.057Z,71.07
2023-04-02T09:19:18.128Z,71.29
2023-04-02T09:20:18.047Z,71.04
2023-04-02T09:21:18.108Z,70.68
2023-04-02T09:22:18.056Z,69.93
2023-04-02T09:23:19.136Z,70.52
2023-04-02T09:24:17.980Z,70.17
2023-04-02T09:25:18.199Z,69.57
2023-04-02T09:26:18.002Z,69.75
2023-04-02T09:27:17.958Z,69.70
2023-04-02T09:28:17.948Z,68.97
2023-04-02T09:29:17.958Z,69.57
2023-04-02T09:30:17.888Z,70.06
2023-04-02T09:31:18.006Z,69.75
2023-04-02T09:32:17.869Z,69.73
2023-04-02T09:33:18.120Z,69.80
2023-04-02T09:34:17.852Z,69.08
2023-04-02T09:35:25.468Z,69.12
2023-04-02T09:36:18.854Z,69.00
2023-04-02T09:37:17.920Z,68.44
2023-04-02T09:38:17.801Z,68.55
2023-04-02T09:39:18.873Z,68.21
2023-04-02T09:40:18.024Z,67.30
2023-04-02T09:41:17.889Z,67.86
2023-04-02T09:42:17.741Z,67.45
2023-04-02T09:43:17.752Z,67.23
2023-04-02T09:44:17.909Z,67.00
2023-04-02T09:45:18.850Z,66.96
2023-04-02T09:46:17.721Z,67.34
2023-04-02T09:47:19.867Z,67.85
2023-04-02T09:48:18.063Z,68.08
2023-04-02T09:49:17.708Z,67.35
2023-04-02T09:50:17.713Z,67.73
2023-04-02T09:51:17.916Z,68.15
2023-04-02T09:52:17.724Z,67.52
2023-04-02T09:53:17.875Z,67.41
2023-04-02T09:54:17.669Z,67.53
2023-04-02T09:55:17.648Z,67.18
2023-04-02T09:56:17.606Z,67.81
2023-04-02T09:57:17.680Z,68.27
2023-04-02T09:58:17.597Z,67.76
2023-04-02T09:59:17.585Z,68.56
2023-04-02T10:00:30.770Z,67.68
2023-04-02T10:01:18.529Z,67.08
2023-04-02T10:02:17.591Z,67.27
2023-04-02T10:03:17.459Z,66.83
2023-04-02T10:04:17.866Z,67.91
2023-04-02T10:05:26.696Z,67.03
2023-04-02T10:06:18.515Z,67.00
2023-04-02T10:07:17.828Z,66.43
2023-04-02T10:08:17.568Z,66.57
2023-04-02T10:09:17.532Z,66.14
2023-04-02T10:10:17.966Z,65.87
2023-04-02T10:11:19.718Z,66.46
2023-04-02T10:12:17.772Z,66.43
2023-04-02T10:13:18.900Z,65.94
2023-04-02T10:14:17.427Z,65.84
2023-04-02T10:15:18.399Z,65.86
2023-04-02T10:16:17.423Z,66.03
2023-04-02T10:17:18.466Z,65.50
2023-04-02T10:18:17.344Z,65.41
2023-04-02T10:19:17.532Z,65.31
2023-04-02T10:20:17.284Z,65.69
2023-04-02T10:21:17.509Z,65.44
2023-04-02T10:22:17.223Z,65.20
2023-04-02T10:23:17.255Z,65.70
2023-04-02T10:24:17.175Z,65.10
2023-04-02T10:25:17.280Z,65.04
2023-04-02T10:26:17.159Z,65.09
2023-04-02T10:27:18.241Z,65.87
2023-04-02T10:28:17.152Z,66.40
2023-04-02T10:29:17.175Z,66.75
2023-04-02T10:30:17.109Z,67.20
2023-04-02T10:31:17.297Z,67.19
2023-04-02T10:32:17.077Z,67.58
2023-04-02T10:33:17.095Z,68.37
2023-04-02T10:34:17.119Z,68.75
2023-04-02T10:35:17.192Z,67.38
2023-04-02T10:36:17.085Z,67.59
2023-04-02T10:37:17.125Z,67.94
2023-04-02T10:38:17.238Z,68.25
2023-04-02T10:39:17.033Z,69.09
2023-04-02T10:40:17.119Z,68.46
2023-04-02T10:41:17.049Z,69.15
2023-04-02T10:42:16.938Z,68.88
2023-04-02T10:43:17.064Z,69.18
2023-04-02T10:44:20.553Z,69.52
2023-04-02T10:45:17.023Z,68.31
2023-04-02T10:46:17.211Z,68.34
2023-04-02T10:47:16.955Z,68.91
2023-04-02T10:48:16.901Z,68.40
2023-04-02T10:49:16.944Z,69.11
2023-04-02T10:50:16.956Z,69.20
2023-04-02T10:51:16.833Z,68.85
2023-04-02T10:52:16.890Z,68.40
2023-04-02T10:53:16.795Z,68.83
2023-04-02T10:54:16.846Z,69.35
2023-04-02T10:55:16.868Z,68.54
2023-04-02T10:56:16.862Z,68.46
2023-04-02T10:57:16.800Z,68.19
2023-04-02T10:58:16.813Z,68.13
2023-04-02T10:59:16.718Z,68.29
2023-04-02T11:00:17.810Z,68.73
2023-04-02T11:01:16.712Z,68.90
2023-04-02T11:02:16.881Z,68.91
2023-04-02T11:03:16.728Z,68.95
2023-04-02T11:04:16.763Z,69.82
2023-04-02T11:05:16.915Z,70.80
2023-04-02T11:06:16.719Z,71.62
2023-04-02T11:07:16.611Z,71.55
2023-04-02T11:08:16.663Z,72.14
2023-04-02T11:09:16.581Z,72.27
2023-04-02T11:10:16.784Z,72.79
2023-04-02T11:11:16.570Z,74.60
2023-04-02T11:12:17.701Z,74.25
2023-04-02T11:13:16.718Z,73.56
2023-04-02T11:14:18.930Z,74.64
2023-04-02T11:15:16.758Z,74.10
2023-04-02T11:16:16.878Z,73.70
2023-04-02T11:17:16.481Z,74.41
2023-04-02T11:18:17.652Z,74.59
2023-04-02T11:19:16.598Z,73.33
2023-04-02T11:20:17.752Z,72.64
2023-04-02T11:21:16.501Z,73.74
2023-04-02T11:22:16.714Z,73.66
2023-04-02T11:23:16.446Z,73.16
2023-04-02T11:24:16.442Z,74.49
2023-04-02T11:25:16.366Z,73.27
2023-04-02T11:26:16.728Z,72.23
2023-04-02T11:27:16.441Z,71.88
2023-04-02T11:28:16.421Z,71.28
2023-04-02T11:29:16.395Z,71.59
2023-04-02T11:30:16.451Z,71.25
2023-04-02T11:31:16.308Z,71.04
2023-04-02T11:32:16.303Z,70.89
2023-04-02T11:33:18.701Z,70.71
2023-04-02T11:34:16.281Z,71.26
2023-04-02T11:35:16.314Z,70.99
2023-04-02T11:36:16.252Z,71.44
2023-04-02T11:37:17.322Z,72.65
2023-04-02T11:38:16.200Z,72.36
2023-04-02T11:39:17.723Z,73.36
2023-04-02T11:40:16.350Z,73.86
2023-04-02T11:41:16.255Z,74.27
2023-04-02T11:42:16.223Z,74.74
2023-04-02T11:43:16.172Z,75.64
2023-04-02T11:44:16.153Z,76.19
2023-04-02T11:45:20.606Z,76.75
2023-04-02T11:46:16.245Z,77.46
2023-04-02T11:47:16.211Z,77.83
2023-04-02T11:48:16.086Z,77.90
2023-04-02T11:49:16.255Z,76.54
2023-04-02T11:50:16.076Z,75.47
2023-04-02T11:51:18.371Z,75.22
2023-04-02T11:52:16.141Z,75.65
2023-04-02T11:53:17.166Z,76.35
2023-04-02T11:54:16.082Z,75.54
2023-04-02T11:55:16.069Z,75.60
2023-04-02T11:56:15.962Z,75.39
2023-04-02T11:57:16.071Z,75.52
2023-04-02T11:58:15.978Z,75.65
2023-04-02T11:59:17.010Z,75.73
2023-04-02T12:00:17.570Z,76.19
2023-04-02T12:01:38.006Z,76.25
2023-04-02T12:02:15.947Z,76.81
2023-04-02T12:03:16.001Z,77.49
2023-04-02T12:04:15.884Z,77.73
2023-04-02T12:05:15.946Z,77.74
2023-04-02T12:06:15.832Z,77.28
2023-04-02T12:07:15.829Z,77.61
2023-04-02T12:08:15.799Z,78.49
2023-04-02T12:09:15.908Z,79.02
2023-04-02T12:10:15.795Z,79.36
2023-04-02T12:11:15.876Z,79.04
2023-04-02T12:12:15.753Z,78.92
2023-04-02T12:13:15.791Z,78.85
2023-04-02T12:14:15.841Z,79.06
2023-04-02T12:15:16.048Z,79.20
2023-04-02T12:16:15.725Z,79.20
2023-04-02T12:17:16.756Z,79.21
2023-04-02T12:18:16.398Z,79.37
2023-04-02T12:19:15.727Z,79.48
2023-04-02T12:20:15.782Z,79.75
2023-04-02T12:21:15.747Z,79.46
2023-04-02T12:22:15.929Z,79.05
2023-04-02T12:23:15.639Z,79.11
2023-04-02T12:24:15.778Z,79.25
2023-04-02T12:25:15.909Z,79.56
2023-04-02T12:26:15.557Z,79.78
2023-04-02T12:27:15.773Z,80.27
2023-04-02T12:28:15.545Z,79.93
2023-04-02T12:29:15.584Z,80.11
2023-04-02T12:30:15.518Z,79.99
2023-04-02T12:31:15.643Z,80.11
2023-04-02T12:32:15.477Z,80.28
2023-04-02T12:33:15.538Z,80.05
2023-04-02T12:34:15.477Z,80.06
2023-04-02T12:35:15.530Z,80.14
2023-04-02T12:36:15.461Z,80.36
2023-04-02T12:37:15.693Z,80.04
2023-04-02T12:38:15.398Z,80.24
2023-04-02T12:39:15.459Z,79.67
2023-04-02T12:40:15.415Z,79.39
2023-04-02T12:41:36.576Z,78.97
2023-04-02T12:42:15.342Z,78.74
2023-04-02T12:43:15.476Z,78.88
2023-04-02T12:44:15.321Z,78.84
2023-04-02T12:45:17.476Z,78.91
2023-04-02T12:46:15.422Z,78.39
2023-04-02T12:47:16.818Z,78.95
2023-04-02T12:48:15.408Z,78.81
2023-04-02T12:49:15.447Z,79.18
2023-04-02T12:50:15.263Z,79.50
2023-04-02T12:51:17.200Z,80.10
2023-04-02T12:52:15.337Z,80.02